EGVO

RAF Odiham Airport

Odiham, United Kingdom
METAR EGVO 231550Z 09014KT 9999 FEW032 03/M05 Q1018 BLU NOSIG
Observed Flight Rules
Feb-23 @ 15:50 UTC (51 minutes ago) Visual Flight Rules
Wind Visibility Clouds
90° at 14 knots 10,000+ meters
  • Few at 3,200' AGL
Temperatures Readings
Current 3°C / 37°F
Dewpoint -5°C / 23°F
Humidity 56%
Altimeter 30.06" Hg
Pressure 1018 hPa
Elevation 123
METAR EGVO 231550Z 09014KT 9999 FEW032 03/M05 Q1018 BLU NOSIG
Observed Flight Rules
Feb-23 @ 15:50 UTC
(51 minutes ago)
VFR
Wind Visibility
90° at 14 knots 10,000+ meters
Clouds
  • Few at 3,200' AGL
Temperature Dewpoint
3°C / 37°F -5°C / 23°F
Humidity Altimeter Pressure
56% 30.06" Hg 1018 hPa